Time;durP1;ratioP1;P1;durP2;ratioP2;P2;SDS_P1;SDS_P2;PMS_P1;PMS_P2;Temp;Humidity;BMP_temperature;BMP_pressure;BME280_temperature;BME280_humidity;BME280_pressure;Samples;Min_cycle;Max_cycle;Signal;HPM_P1;HPM_P2
2022/08/27 00:02:24;;;;;;;10.03;5.35;;;;;;;;;;1740885;82;21051;-71
2022/08/27 00:04:51;;;;;;;7.58;5.03;;;;;;;;;;1740661;82;21133;-71
2022/08/27 00:07:18;;;;;;;7.28;5.00;;;;;;;;;;1734766;82;21199;-71
2022/08/27 00:09:45;;;;;;;8.68;5.50;;;;;;;;;;1734851;82;21480;-70
2022/08/27 00:12:11;;;;;;;9.40;5.10;;;;;;;;;;1746391;81;21480;-71
2022/08/27 00:14:37;;;;;;;9.90;5.08;;;;;;;;;;1734593;82;21092;-70
2022/08/27 00:17:04;;;;;;;9.53;5.65;;;;;;;;;;1740194;82;21033;-71
2022/08/27 00:19:34;;;;;;;10.98;5.85;;;;;;;;;;1744457;82;21010;-70
2022/08/27 00:22:00;;;;;;;9.35;5.75;;;;;;;;;;1736883;82;21128;-69
2022/08/27 00:24:27;;;;;;;8.23;5.67;;;;;;;;;;1742608;82;21575;-69
2022/08/27 00:26:53;;;;;;;7.90;5.00;;;;;;;;;;1721761;82;21057;-69
2022/08/27 00:29:19;;;;;;;7.80;5.80;;;;;;;;;;1727249;82;21103;-70
2022/08/27 00:31:46;;;;;;;11.08;6.15;;;;;;;;;;1722036;82;21026;-69
2022/08/27 00:34:11;;;;;;;7.83;5.50;;;;;;;;;;1724177;82;21013;-70
2022/08/27 00:36:38;;;;;;;9.30;6.00;;;;;;;;;;1704187;82;21134;-70
2022/08/27 00:39:04;;;;;;;8.53;5.75;;;;;;;;;;1728217;82;21497;-71
2022/08/27 00:41:32;;;;;;;7.17;5.90;;;;;;;;;;1723513;82;21567;-70
2022/08/27 00:43:59;;;;;;;10.55;6.30;;;;;;;;;;1726900;82;21041;-71
2022/08/27 00:46:26;;;;;;;7.55;5.65;;;;;;;;;;1715830;82;22228;-71
2022/08/27 00:48:54;;;;;;;9.50;6.25;;;;;;;;;;1721522;82;21057;-71
2022/08/27 00:51:20;;;;;;;9.85;5.85;;;;;;;;;;1723308;82;21536;-71
2022/08/27 00:53:47;;;;;;;8.98;6.28;;;;;;;;;;1723071;82;21057;-70
2022/08/27 00:56:15;;;;;;;10.38;5.90;;;;;;;;;;1723430;82;21010;-70
2022/08/27 00:58:42;;;;;;;8.03;5.50;;;;;;;;;;1719710;82;21731;-70
2022/08/27 01:03:57;;;;;;;8.30;5.87;;;;;;;;;;1721843;78;75106;-64
2022/08/27 01:06:25;;;;;;;12.55;6.22;;;;;;;;;;1692290;83;21044;-64
2022/08/27 01:08:53;;;;;;;7.85;5.72;;;;;;;;;;1658145;86;21500;-65
2022/08/27 01:11:20;;;;;;;9.90;6.65;;;;;;;;;;1655645;86;21032;-64
2022/08/27 01:13:46;;;;;;;10.75;7.12;;;;;;;;;;1692816;85;21196;-64
2022/08/27 01:16:15;;;;;;;8.15;6.20;;;;;;;;;;1659674;86;21093;-64
2022/08/27 01:18:41;;;;;;;13.83;7.15;;;;;;;;;;1653598;86;21627;-64
2022/08/27 01:21:15;;;;;;;8.78;6.25;;;;;;;;;;1656691;86;21066;-65
2022/08/27 01:23:46;;;;;;;7.90;6.05;;;;;;;;;;1649781;86;21068;-65
2022/08/27 01:26:12;;;;;;;10.82;7.17;;;;;;;;;;1687437;85;21088;-64
2022/08/27 01:28:39;;;;;;;12.18;6.60;;;;;;;;;;1653807;86;21033;-63
2022/08/27 01:31:06;;;;;;;10.32;7.25;;;;;;;;;;1689399;85;21012;-64
2022/08/27 01:33:32;;;;;;;8.88;6.28;;;;;;;;;;1658097;86;22127;-64
2022/08/27 01:35:59;;;;;;;10.25;6.60;;;;;;;;;;1656509;85;21599;-63
2022/08/27 01:40:00;;;;;;;10.38;6.78;;;;;;;;;;1783938;79;23382;-64
2022/08/27 01:42:29;;;;;;;11.12;7.00;;;;;;;;;;1751363;81;21044;-64
2022/08/27 01:45:00;;;;;;;9.58;6.65;;;;;;;;;;1749515;81;21017;-64
2022/08/27 01:47:26;;;;;;;9.58;6.97;;;;;;;;;;1753652;81;21000;-64
2022/08/27 01:49:52;;;;;;;10.05;6.37;;;;;;;;;;1753735;81;21096;-64
2022/08/27 01:52:19;;;;;;;8.05;6.17;;;;;;;;;;1755317;81;22108;-64
2022/08/27 01:54:45;;;;;;;8.58;6.55;;;;;;;;;;1755453;81;21626;-64
2022/08/27 01:57:11;;;;;;;11.45;6.67;;;;;;;;;;1756332;81;21044;-64
2022/08/27 01:59:37;;;;;;;8.43;6.60;;;;;;;;;;1755114;81;21094;-64
2022/08/27 02:02:03;;;;;;;10.35;6.50;;;;;;;;;;1754945;81;21157;-64
2022/08/27 02:04:30;;;;;;;8.55;6.70;;;;;;;;;;1749642;81;21138;-63
2022/08/27 02:06:56;;;;;;;10.85;6.42;;;;;;;;;;1737457;81;21016;-63
2022/08/27 02:09:23;;;;;;;11.85;6.67;;;;;;;;;;1744914;81;21028;-64
2022/08/27 02:11:49;;;;;;;9.80;6.28;;;;;;;;;;1744729;80;21063;-64
2022/08/27 02:14:15;;;;;;;8.33;6.35;;;;;;;;;;1746404;80;21020;-64
2022/08/27 02:16:41;;;;;;;10.95;6.28;;;;;;;;;;1746082;80;21007;-63
2022/08/27 02:19:07;;;;;;;8.90;6.08;;;;;;;;;;1737982;81;22308;-64
2022/08/27 02:21:33;;;;;;;9.00;6.20;;;;;;;;;;1739309;81;21056;-64
2022/08/27 02:23:59;;;;;;;9.68;6.83;;;;;;;;;;1742678;80;20977;-64
2022/08/27 02:26:26;;;;;;;8.95;6.53;;;;;;;;;;1741389;81;21012;-64
2022/08/27 02:28:53;;;;;;;9.33;6.45;;;;;;;;;;1739368;81;21063;-64
2022/08/27 02:31:20;;;;;;;10.78;5.92;;;;;;;;;;1746505;81;21535;-64
2022/08/27 02:33:47;;;;;;;12.15;6.25;;;;;;;;;;1746556;81;21076;-64
2022/08/27 02:36:14;;;;;;;9.28;6.53;;;;;;;;;;1741741;81;21005;-64
2022/08/27 02:38:41;;;;;;;9.98;6.50;;;;;;;;;;1743560;81;21091;-65
2022/08/27 02:41:07;;;;;;;8.63;5.90;;;;;;;;;;1728656;81;21053;-64
2022/08/27 02:43:33;;;;;;;9.38;6.03;;;;;;;;;;1726919;82;21088;-64
2022/08/27 02:46:00;;;;;;;13.10;6.30;;;;;;;;;;1728415;82;22675;-63
2022/08/27 02:48:26;;;;;;;9.48;5.97;;;;;;;;;;1737564;82;21040;-63
2022/08/27 02:50:53;;;;;;;8.88;5.90;;;;;;;;;;1731150;82;21104;-64
2022/08/27 02:53:19;;;;;;;10.63;6.20;;;;;;;;;;1727452;82;21064;-64
2022/08/27 02:55:46;;;;;;;8.80;5.78;;;;;;;;;;1732031;82;21520;-64
2022/08/27 02:58:15;;;;;;;8.38;5.80;;;;;;;;;;1730552;82;21147;-64
2022/08/27 03:00:41;;;;;;;8.10;5.53;;;;;;;;;;1725992;82;21173;-64
2022/08/27 03:03:09;;;;;;;9.40;6.10;;;;;;;;;;1722820;82;21101;-64
2022/08/27 03:05:36;;;;;;;9.70;5.30;;;;;;;;;;1730433;82;21555;-64
2022/08/27 03:08:03;;;;;;;10.32;6.28;;;;;;;;;;1730864;82;21655;-64
2022/08/27 03:10:30;;;;;;;10.58;6.20;;;;;;;;;;1693210;84;22182;-64
2022/08/27 03:12:57;;;;;;;8.43;5.50;;;;;;;;;;1689958;84;21087;-64
2022/08/27 03:15:23;;;;;;;9.08;5.65;;;;;;;;;;1705585;82;21051;-64
2022/08/27 03:20:39;;;;;;;9.30;5.80;;;;;;;;;;1705183;84;21543;-63
2022/08/27 03:23:06;;;;;;;9.23;5.87;;;;;;;;;;1692542;82;20971;-64
2022/08/27 03:25:32;;;;;;;8.50;5.25;;;;;;;;;;1690690;84;21076;-64
2022/08/27 03:27:59;;;;;;;10.32;5.47;;;;;;;;;;1696919;84;21192;-64
2022/08/27 03:30:25;;;;;;;9.78;6.00;;;;;;;;;;1643674;87;21094;-64
2022/08/27 03:32:51;;;;;;;9.45;5.72;;;;;;;;;;1663648;84;20980;-64
2022/08/27 03:35:18;;;;;;;12.10;5.83;;;;;;;;;;1675651;84;21021;-64
2022/08/27 03:37:44;;;;;;;10.45;5.53;;;;;;;;;;1690006;85;21042;-63
2022/08/27 03:40:11;;;;;;;8.83;5.45;;;;;;;;;;1695411;83;21582;-64
2022/08/27 03:42:38;;;;;;;9.85;5.83;;;;;;;;;;1706363;84;21029;-64
2022/08/27 03:45:04;;;;;;;9.05;5.03;;;;;;;;;;1708241;84;21544;-64
2022/08/27 03:47:31;;;;;;;12.68;5.33;;;;;;;;;;1707296;84;21520;-63
2022/08/27 03:49:59;;;;;;;9.08;6.30;;;;;;;;;;1688722;84;21579;-64
2022/08/27 03:52:26;;;;;;;9.85;5.40;;;;;;;;;;1715258;83;21093;-64
2022/08/27 03:54:52;;;;;;;8.75;5.72;;;;;;;;;;1711415;84;21571;-64
2022/08/27 03:57:18;;;;;;;8.95;5.25;;;;;;;;;;1709058;84;21101;-64
2022/08/27 03:59:44;;;;;;;10.03;5.42;;;;;;;;;;1688396;84;21052;-64
2022/08/27 04:02:11;;;;;;;7.62;5.22;;;;;;;;;;1711893;84;21080;-64
2022/08/27 04:04:37;;;;;;;11.08;5.12;;;;;;;;;;1705086;84;21089;-64
2022/08/27 04:07:03;;;;;;;11.65;5.55;;;;;;;;;;1689685;84;21142;-63
2022/08/27 04:09:30;;;;;;;8.08;5.58;;;;;;;;;;1706500;84;21068;-64
2022/08/27 04:11:57;;;;;;;8.73;6.12;;;;;;;;;;1694325;84;21092;-64
2022/08/27 04:14:23;;;;;;;8.18;5.53;;;;;;;;;;1709784;84;21033;-64
2022/08/27 04:16:50;;;;;;;8.70;5.12;;;;;;;;;;1692757;84;21057;-64
2022/08/27 04:19:16;;;;;;;10.65;5.65;;;;;;;;;;1706453;84;21060;-65
2022/08/27 04:21:42;;;;;;;7.45;5.08;;;;;;;;;;1693189;84;21060;-65
2022/08/27 04:24:10;;;;;;;8.65;5.33;;;;;;;;;;1692507;84;21115;-64
2022/08/27 04:26:38;;;;;;;11.00;5.72;;;;;;;;;;1690659;84;21049;-64
2022/08/27 04:29:05;;;;;;;7.42;5.50;;;;;;;;;;1712877;84;21045;-64
2022/08/27 04:31:31;;;;;;;8.83;5.10;;;;;;;;;;1714742;84;21517;-64
2022/08/27 04:33:57;;;;;;;13.10;5.72;;;;;;;;;;1695809;84;21002;-64
2022/08/27 04:36:23;;;;;;;7.70;5.42;;;;;;;;;;1702243;84;21091;-64
2022/08/27 04:38:49;;;;;;;10.58;5.28;;;;;;;;;;1696940;84;21057;-64
2022/08/27 04:41:19;;;;;;;14.10;5.90;;;;;;;;;;1681830;84;21144;-64
2022/08/27 04:43:47;;;;;;;10.38;5.20;;;;;;;;;;1693810;84;21045;-64
2022/08/27 04:46:13;;;;;;;11.08;5.80;;;;;;;;;;1705802;84;21576;-64
2022/08/27 04:48:39;;;;;;;11.50;5.53;;;;;;;;;;1688994;84;21611;-63
2022/08/27 04:51:05;;;;;;;13.05;5.50;;;;;;;;;;1737379;82;21092;-63
2022/08/27 04:53:33;;;;;;;11.70;5.83;;;;;;;;;;1741044;82;21044;-63
2022/08/27 04:55:59;;;;;;;9.55;5.67;;;;;;;;;;1741231;82;21049;-64
2022/08/27 04:58:26;;;;;;;11.10;6.15;;;;;;;;;;1719784;82;21044;-64
2022/08/27 05:00:54;;;;;;;9.63;5.50;;;;;;;;;;1719511;82;21559;-63
2022/08/27 05:03:22;;;;;;;11.45;5.75;;;;;;;;;;1715224;82;21069;-63
2022/08/27 05:05:49;;;;;;;13.83;5.40;;;;;;;;;;1717073;82;21560;-63
2022/08/27 05:08:16;;;;;;;8.08;4.70;;;;;;;;;;1723258;82;21092;-63
2022/08/27 05:10:43;;;;;;;9.95;5.30;;;;;;;;;;1720262;82;21029;-63
2022/08/27 05:13:10;;;;;;;9.60;5.60;;;;;;;;;;1723624;82;21556;-65
2022/08/27 05:15:39;;;;;;;10.43;5.37;;;;;;;;;;1713367;82;21036;-64
2022/08/27 05:18:05;;;;;;;9.95;5.37;;;;;;;;;;1720856;82;21057;-65
2022/08/27 05:20:32;;;;;;;13.18;6.15;;;;;;;;;;1729806;82;21044;-64
2022/08/27 05:22:58;;;;;;;9.08;5.58;;;;;;;;;;1727862;82;21085;-64
2022/08/27 05:25:25;;;;;;;8.25;4.97;;;;;;;;;;1720631;82;21096;-65
2022/08/27 05:27:51;;;;;;;14.15;5.65;;;;;;;;;;1718156;82;21092;-64
2022/08/27 05:30:17;;;;;;;10.60;6.03;;;;;;;;;;1711544;84;21057;-65
2022/08/27 05:32:44;;;;;;;8.33;5.30;;;;;;;;;;1711987;84;21076;-65
2022/08/27 05:35:10;;;;;;;10.15;5.50;;;;;;;;;;1725302;82;21037;-65
2022/08/27 05:37:37;;;;;;;8.73;5.17;;;;;;;;;;1729578;82;21056;-64
2022/08/27 05:40:04;;;;;;;7.35;5.15;;;;;;;;;;1737314;82;21148;-64
2022/08/27 05:42:30;;;;;;;10.85;6.50;;;;;;;;;;1728669;80;21055;-63
2022/08/27 05:44:57;;;;;;;11.93;8.60;;;;;;;;;;1732053;81;21591;-64
2022/08/27 05:47:23;;;;;;;10.93;5.08;;;;;;;;;;1719702;81;21029;-64
2022/08/27 05:49:53;;;;;;;12.18;5.42;;;;;;;;;;1754063;81;21092;-64
2022/08/27 05:52:20;;;;;;;18.10;5.45;;;;;;;;;;1729672;82;21057;-64
2022/08/27 05:54:46;;;;;;;10.78;4.60;;;;;;;;;;1722659;82;20969;-64
2022/08/27 05:57:13;;;;;;;11.22;5.22;;;;;;;;;;1724112;82;21036;-63
2022/08/27 06:02:23;;;;;;;10.75;5.10;;;;;;;;;;1714624;82;21037;-64
2022/08/27 06:04:49;;;;;;;11.05;4.83;;;;;;;;;;1725432;82;21033;-64
2022/08/27 06:07:15;;;;;;;15.45;5.72;;;;;;;;;;1731388;82;21048;-63
2022/08/27 06:09:42;;;;;;;7.62;4.78;;;;;;;;;;1717785;82;21030;-64
2022/08/27 06:12:09;;;;;;;9.88;4.62;;;;;;;;;;1728768;82;21060;-64
2022/08/27 06:14:35;;;;;;;9.20;4.83;;;;;;;;;;1760099;81;21061;-64
2022/08/27 06:17:02;;;;;;;8.10;4.60;;;;;;;;;;1763996;81;21077;-64
2022/08/27 06:19:28;;;;;;;8.03;4.47;;;;;;;;;;1764337;81;21077;-63
2022/08/27 06:21:57;;;;;;;9.35;4.60;;;;;;;;;;1723528;81;21552;-63
2022/08/27 06:24:23;;;;;;;11.95;4.97;;;;;;;;;;1723509;82;21544;-63
2022/08/27 06:26:49;;;;;;;9.90;5.00;;;;;;;;;;1713734;82;21122;-63
2022/08/27 06:29:16;;;;;;;9.05;4.53;;;;;;;;;;1712104;83;21496;-64
2022/08/27 06:31:42;;;;;;;9.50;5.20;;;;;;;;;;1730305;82;21081;-63
2022/08/27 06:34:08;;;;;;;13.38;4.97;;;;;;;;;;1713588;82;21069;-64
2022/08/27 06:36:36;;;;;;;7.50;4.35;;;;;;;;;;1723191;82;21108;-64
2022/08/27 06:39:02;;;;;;;9.83;4.90;;;;;;;;;;1729162;82;21071;-64
2022/08/27 06:41:29;;;;;;;10.32;4.62;;;;;;;;;;1725146;82;21084;-64
2022/08/27 06:43:57;;;;;;;13.08;4.97;;;;;;;;;;1722573;82;21071;-63
2022/08/27 06:46:24;;;;;;;34.58;6.97;;;;;;;;;;1729719;81;21057;-63
2022/08/27 06:48:50;;;;;;;15.25;5.53;;;;;;;;;;1720663;82;21158;-64
2022/08/27 06:51:18;;;;;;;11.20;4.80;;;;;;;;;;1728892;82;21033;-64
2022/08/27 06:53:44;;;;;;;11.55;4.92;;;;;;;;;;1735401;82;21556;-63
2022/08/27 06:56:10;;;;;;;12.95;4.75;;;;;;;;;;1723647;82;21093;-64
2022/08/27 06:58:36;;;;;;;12.07;5.08;;;;;;;;;;1727815;81;21041;-64
2022/08/27 07:01:05;;;;;;;13.05;5.40;;;;;;;;;;1719076;82;21064;-63
2022/08/27 07:03:31;;;;;;;9.30;4.97;;;;;;;;;;1729109;82;21136;-63
2022/08/27 07:06:00;;;;;;;13.25;5.20;;;;;;;;;;1732327;81;21052;-63
2022/08/27 07:08:26;;;;;;;9.58;4.70;;;;;;;;;;1722805;82;21041;-64
2022/08/27 07:10:55;;;;;;;11.12;5.55;;;;;;;;;;1721600;81;21100;-63
2022/08/27 07:13:22;;;;;;;8.15;5.17;;;;;;;;;;1722436;82;21521;-65
2022/08/27 07:15:49;;;;;;;7.45;4.75;;;;;;;;;;1728713;81;21041;-65
2022/08/27 07:18:15;;;;;;;10.28;4.62;;;;;;;;;;1718478;82;21084;-64
2022/08/27 07:20:41;;;;;;;7.70;4.55;;;;;;;;;;1721862;82;21009;-64
2022/08/27 07:23:07;;;;;;;11.08;4.90;;;;;;;;;;1727946;82;20974;-64
2022/08/27 07:25:34;;;;;;;8.80;4.75;;;;;;;;;;1724315;82;21169;-63
2022/08/27 07:28:00;;;;;;;10.40;5.03;;;;;;;;;;1723719;82;21481;-63
2022/08/27 07:30:26;;;;;;;13.20;5.10;;;;;;;;;;1720860;82;21009;-63
2022/08/27 07:32:53;;;;;;;10.63;4.62;;;;;;;;;;1726501;81;21092;-64
2022/08/27 07:35:19;;;;;;;12.85;4.78;;;;;;;;;;1724788;82;21040;-64
2022/08/27 07:37:45;;;;;;;12.65;5.15;;;;;;;;;;1731484;81;21049;-64
2022/08/27 07:40:12;;;;;;;10.68;5.10;;;;;;;;;;1726885;82;21069;-65
2022/08/27 07:45:24;;;;;;;11.90;4.78;;;;;;;;;;1721068;81;21049;-64
2022/08/27 07:47:51;;;;;;;12.95;4.67;;;;;;;;;;1727124;82;21018;-64
2022/08/27 07:50:17;;;;;;;7.95;4.95;;;;;;;;;;1733696;82;21524;-64
2022/08/27 07:52:43;;;;;;;6.72;4.30;;;;;;;;;;1734977;82;21509;-63
2022/08/27 07:55:10;;;;;;;8.73;4.97;;;;;;;;;;1732837;82;21040;-63
2022/08/27 07:57:36;;;;;;;8.30;4.50;;;;;;;;;;1734715;81;20962;-63
2022/08/27 08:00:03;;;;;;;8.18;4.95;;;;;;;;;;1727281;82;21033;-63
2022/08/27 08:02:33;;;;;;;14.35;5.10;;;;;;;;;;1724812;82;21043;-63
2022/08/27 08:05:00;;;;;;;9.60;4.90;;;;;;;;;;1722791;82;21104;-64
2022/08/27 08:07:27;;;;;;;9.23;4.78;;;;;;;;;;1718724;82;21067;-65
2022/08/27 08:09:53;;;;;;;7.87;4.58;;;;;;;;;;1734735;82;21052;-64
2022/08/27 08:12:20;;;;;;;9.30;4.35;;;;;;;;;;1724279;82;21099;-63
2022/08/27 08:14:47;;;;;;;9.33;4.40;;;;;;;;;;1724381;82;21022;-64
2022/08/27 08:17:14;;;;;;;10.00;5.00;;;;;;;;;;1727936;81;21050;-64
2022/08/27 08:19:40;;;;;;;6.67;4.37;;;;;;;;;;1728570;81;21081;-64
2022/08/27 08:22:07;;;;;;;10.82;4.70;;;;;;;;;;1741148;82;21590;-64
2022/08/27 08:24:34;;;;;;;9.95;4.40;;;;;;;;;;1720368;82;21402;-64
2022/08/27 08:27:00;;;;;;;8.13;4.60;;;;;;;;;;1716182;82;21084;-63
2022/08/27 08:29:26;;;;;;;7.80;4.67;;;;;;;;;;1715602;81;21043;-63
2022/08/27 08:31:59;;;;;;;8.73;4.90;;;;;;;;;;1728043;82;21084;-63
2022/08/27 08:34:25;;;;;;;10.53;5.22;;;;;;;;;;1718716;82;21056;-63
2022/08/27 08:36:51;;;;;;;8.35;5.20;;;;;;;;;;1728555;82;21037;-64
2022/08/27 08:39:18;;;;;;;13.22;5.10;;;;;;;;;;1714831;82;21575;-64
2022/08/27 08:41:49;;;;;;;13.98;5.30;;;;;;;;;;1740522;81;21064;-63
2022/08/27 08:44:23;;;;;;;12.80;5.58;;;;;;;;;;1731711;81;21104;-64
2022/08/27 08:46:51;;;;;;;8.68;4.80;;;;;;;;;;1734366;81;21560;-63
2022/08/27 08:49:19;;;;;;;8.73;5.90;;;;;;;;;;1725532;82;21544;-64
2022/08/27 08:51:45;;;;;;;9.05;5.55;;;;;;;;;;1728274;82;21084;-63
2022/08/27 08:54:18;;;;;;;9.93;5.72;;;;;;;;;;1728265;81;21488;-63
2022/08/27 08:56:51;;;;;;;12.63;6.05;;;;;;;;;;1721531;82;21651;-63
2022/08/27 08:59:17;;;;;;;;;;;;;;;;;;1720462;82;21548;-64
2022/08/27 09:01:44;;;;;;;8.95;6.05;;;;;;;;;;1735921;81;20442;-63
2022/08/27 09:04:10;;;;;;;10.58;5.97;;;;;;;;;;1713965;82;21084;-64
2022/08/27 09:06:51;;;;;;;9.15;5.72;;;;;;;;;;1728183;81;21040;-63
2022/08/27 09:09:19;;;;;;;14.18;6.12;;;;;;;;;;1735049;82;21108;-64
2022/08/27 09:11:48;;;;;;;9.58;5.90;;;;;;;;;;1737021;82;21489;-63
2022/08/27 09:14:20;;;;;;;11.05;6.05;;;;;;;;;;1737505;82;21595;-70
2022/08/27 09:16:46;;;;;;;8.60;6.00;;;;;;;;;;1725399;81;21092;-70
2022/08/27 09:19:13;;;;;;;10.13;6.15;;;;;;;;;;1726125;82;21552;-70
2022/08/27 09:21:44;;;;;;;12.60;6.00;;;;;;;;;;1733617;81;21021;-71
2022/08/27 09:24:25;;;;;;;11.55;6.15;;;;;;;;;;1718731;82;21600;-68
2022/08/27 09:26:51;;;;;;;9.45;5.95;;;;;;;;;;1722567;82;21603;-70
2022/08/27 09:29:20;;;;;;;8.28;5.67;;;;;;;;;;1719836;81;21571;-70
2022/08/27 09:31:54;;;;;;;10.65;6.00;;;;;;;;;;1732123;82;20966;-70
2022/08/27 09:34:20;;;;;;;16.02;6.22;;;;;;;;;;1726974;82;21021;-72
2022/08/27 09:36:51;;;;;;;14.43;6.00;;;;;;;;;;1739145;82;21065;-69
2022/08/27 09:39:17;;;;;;;14.65;6.17;;;;;;;;;;1722760;81;21540;-70
2022/08/27 09:41:44;;;;;;;9.95;5.90;;;;;;;;;;1732386;81;21053;-70
2022/08/27 09:44:11;;;;;;;12.20;5.75;;;;;;;;;;1731150;82;21041;-71
2022/08/27 09:46:37;;;;;;;13.08;5.20;;;;;;;;;;1730094;82;21548;-71
2022/08/27 09:49:12;;;;;;;16.45;5.12;;;;;;;;;;1721638;81;20981;-70
2022/08/27 09:51:39;;;;;;;20.77;5.33;;;;;;;;;;1729706;81;21021;-71
2022/08/27 09:54:07;;;;;;;25.77;6.00;;;;;;;;;;1731314;81;21013;-71
2022/08/27 09:56:34;;;;;;;15.95;5.87;;;;;;;;;;1729047;81;21093;-63
2022/08/27 09:59:05;;;;;;;11.78;5.45;;;;;;;;;;1716362;82;21045;-63
2022/08/27 10:01:33;;;;;;;16.25;5.70;;;;;;;;;;1723744;82;21093;-61
2022/08/27 10:04:10;;;;;;;18.35;5.25;;;;;;;;;;1730614;81;21051;-64
2022/08/27 10:06:37;;;;;;;18.40;5.60;;;;;;;;;;1722005;82;21084;-64
2022/08/27 10:09:11;;;;;;;15.30;4.92;;;;;;;;;;1740682;82;21025;-64
2022/08/27 10:11:42;;;;;;;24.00;5.40;;;;;;;;;;1717175;82;21021;-64
2022/08/27 10:14:19;;;;;;;13.05;5.45;;;;;;;;;;1724829;82;21053;-64
2022/08/27 10:16:51;;;;;;;20.52;4.80;;;;;;;;;;1706863;82;21025;-64
2022/08/27 10:19:17;;;;;;;19.07;5.03;;;;;;;;;;1723694;82;21037;-64
2022/08/27 10:21:48;;;;;;;35.73;5.67;;;;;;;;;;1719631;82;20997;-63
2022/08/27 10:24:15;;;;;;;13.53;4.72;;;;;;;;;;1727727;82;20989;-63
2022/08/27 10:26:53;;;;;;;14.38;5.17;;;;;;;;;;1716431;82;21421;-63
2022/08/27 10:29:29;;;;;;;18.60;5.47;;;;;;;;;;1736396;81;21029;-64
2022/08/27 10:32:00;;;;;;;17.48;4.47;;;;;;;;;;1730571;82;21197;-64
2022/08/27 10:34:28;;;;;;;12.63;4.92;;;;;;;;;;1740171;82;21026;-63
2022/08/27 10:37:14;;;;;;;14.70;4.78;;;;;;;;;;1729988;81;21048;-64
2022/08/27 10:39:47;;;;;;;17.67;5.10;;;;;;;;;;1732355;82;21012;-63
2022/08/27 10:42:18;;;;;;;15.90;4.70;;;;;;;;;;1717946;81;21568;-64
2022/08/27 10:44:58;;;;;;;14.13;5.25;;;;;;;;;;1728596;82;21042;-64
2022/08/27 10:47:33;;;;;;;16.82;4.37;;;;;;;;;;1726199;82;21045;-63
2022/08/27 10:50:04;;;;;;;13.93;4.80;;;;;;;;;;1717119;82;21576;-64
2022/08/27 10:52:32;;;;;;;15.65;5.20;;;;;;;;;;1721257;82;21425;-64
2022/08/27 10:54:59;;;;;;;21.65;5.20;;;;;;;;;;1732330;82;21536;-64
2022/08/27 10:57:33;;;;;;;19.17;8.88;;;;;;;;;;1725390;82;21021;-64
2022/08/27 11:00:02;;;;;;;45.65;7.42;;;;;;;;;;1731819;81;21064;-64
2022/08/27 11:02:36;;;;;;;19.12;5.37;;;;;;;;;;1722075;82;21081;-64
2022/08/27 11:05:04;;;;;;;13.22;4.80;;;;;;;;;;1733705;82;21529;-65
2022/08/27 11:07:32;;;;;;;16.27;5.45;;;;;;;;;;1714402;82;21045;-63
2022/08/27 11:10:03;;;;;;;22.22;5.65;;;;;;;;;;1722087;82;21021;-64
2022/08/27 11:12:35;;;;;;;15.60;5.08;;;;;;;;;;1726768;81;21006;-64
2022/08/27 11:15:19;;;;;;;21.35;5.47;;;;;;;;;;1737281;82;22085;-64
2022/08/27 11:17:49;;;;;;;19.82;5.28;;;;;;;;;;1735280;82;21643;-63
2022/08/27 11:20:19;;;;;;;15.50;6.08;;;;;;;;;;1694196;84;21056;-65
2022/08/27 11:22:47;;;;;;;13.25;4.90;;;;;;;;;;1727919;82;21093;-64
2022/08/27 11:25:27;;;;;;;14.15;5.25;;;;;;;;;;1720665;81;21010;-65
2022/08/27 11:27:53;;;;;;;12.60;5.47;;;;;;;;;;1741082;81;21029;-64
2022/08/27 11:30:21;;;;;;;11.88;4.53;;;;;;;;;;1726865;82;21053;-64
2022/08/27 11:32:52;;;;;;;15.55;4.45;;;;;;;;;;1724420;82;21009;-64
2022/08/27 11:35:21;;;;;;;12.07;4.25;;;;;;;;;;1741306;82;21001;-65
2022/08/27 11:37:49;;;;;;;14.78;5.20;;;;;;;;;;1740586;82;21088;-64
2022/08/27 11:40:33;;;;;;;14.50;4.25;;;;;;;;;;1744165;81;21029;-64
2022/08/27 11:43:03;;;;;;;13.28;4.87;;;;;;;;;;1720009;82;21038;-64
2022/08/27 11:45:37;;;;;;;16.27;4.33;;;;;;;;;;1725214;82;21044;-65
2022/08/27 11:48:01;;;;;;;14.43;4.20;;;;;;;;;;1735844;81;20998;-63
2022/08/27 11:50:28;;;;;;;11.38;4.17;;;;;;;;;;1739454;81;21048;-64
2022/08/27 11:53:00;;;;;;;12.18;5.80;;;;;;;;;;1740562;82;21458;-64
2022/08/27 11:55:28;;;;;;;18.17;5.75;;;;;;;;;;1719224;82;21092;-64
2022/08/27 11:58:09;;;;;;;15.93;5.30;;;;;;;;;;1731630;81;21552;-63
2022/08/27 12:00:36;;;;;;;14.73;4.65;;;;;;;;;;1731416;82;21112;-64
2022/08/27 12:03:04;;;;;;;10.45;4.25;;;;;;;;;;1714865;84;21025;-64
2022/08/27 12:05:34;;;;;;;11.15;4.10;;;;;;;;;;1717094;81;20982;-65
2022/08/27 12:08:03;;;;;;;11.35;4.37;;;;;;;;;;1728197;81;21088;-64
2022/08/27 12:10:31;;;;;;;13.15;4.80;;;;;;;;;;1720145;82;21044;-65
2022/08/27 12:13:02;;;;;;;9.88;4.50;;;;;;;;;;1736452;82;21100;-65
2022/08/27 12:15:45;;;;;;;10.23;4.08;;;;;;;;;;1722646;82;21048;-65
2022/08/27 12:18:16;;;;;;;11.83;3.85;;;;;;;;;;1728283;82;21040;-65
2022/08/27 12:20:50;;;;;;;11.08;3.95;;;;;;;;;;1718239;82;21076;-65
2022/08/27 12:23:39;;;;;;;12.82;3.77;;;;;;;;;;1696997;82;21441;-64
2022/08/27 12:26:22;;;;;;;8.68;4.10;;;;;;;;;;1722734;82;21055;-65
2022/08/27 12:28:48;;;;;;;10.00;5.20;;;;;;;;;;1730425;81;21057;-64
2022/08/27 12:31:18;;;;;;;11.43;4.03;;;;;;;;;;1739474;81;21043;-62
2022/08/27 12:33:45;;;;;;;15.70;6.87;;;;;;;;;;1732764;82;21108;-63
2022/08/27 12:36:24;;;;;;;10.20;3.87;;;;;;;;;;1742283;81;21084;-63
2022/08/27 12:38:52;;;;;;;7.12;4.10;;;;;;;;;;1723336;81;21017;-62
2022/08/27 12:41:25;;;;;;;11.83;4.15;;;;;;;;;;1733980;82;21021;-64
2022/08/27 12:43:53;;;;;;;10.18;3.83;;;;;;;;;;1714637;82;21041;-64
2022/08/27 12:46:19;;;;;;;12.05;4.00;;;;;;;;;;1717064;81;21045;-64
2022/08/27 12:48:55;;;;;;;8.50;3.90;;;;;;;;;;1725820;81;21044;-64
2022/08/27 12:51:26;;;;;;;10.18;3.83;;;;;;;;;;1725866;82;20967;-62
2022/08/27 12:53:57;;;;;;;11.10;3.85;;;;;;;;;;1734467;81;21017;-63
2022/08/27 12:56:25;;;;;;;7.72;3.55;;;;;;;;;;1721655;81;21421;-62
2022/08/27 12:59:11;;;;;;;6.97;3.67;;;;;;;;;;1725368;82;21010;-62
2022/08/27 13:01:55;;;;;;;9.40;3.92;;;;;;;;;;1725157;81;21041;-63
2022/08/27 13:04:25;;;;;;;8.70;4.60;;;;;;;;;;1728311;82;21033;-61
2022/08/27 13:06:51;;;;;;;7.45;3.75;;;;;;;;;;1724686;82;21053;-62
2022/08/27 13:09:19;;;;;;;6.85;3.87;;;;;;;;;;1722438;81;21564;-62
2022/08/27 13:11:46;;;;;;;5.90;3.80;;;;;;;;;;1722030;81;21049;-63
2022/08/27 13:14:14;;;;;;;8.43;3.87;;;;;;;;;;1716262;82;21105;-63
2022/08/27 13:16:51;;;;;;;5.35;4.00;;;;;;;;;;1717806;82;21003;-64
2022/08/27 13:19:21;;;;;;;15.68;5.90;;;;;;;;;;1718571;81;21040;-63
2022/08/27 13:21:48;;;;;;;7.70;4.95;;;;;;;;;;1687472;82;21032;-63
2022/08/27 13:24:16;;;;;;;6.05;3.98;;;;;;;;;;1731537;81;21044;-64
2022/08/27 13:26:44;;;;;;;7.33;4.67;;;;;;;;;;1705240;82;21028;-63
2022/08/27 13:29:10;;;;;;;8.43;3.90;;;;;;;;;;1728984;81;21049;-64
2022/08/27 13:31:36;;;;;;;10.70;4.30;;;;;;;;;;1725465;82;20965;-64
2022/08/27 13:34:03;;;;;;;8.85;4.75;;;;;;;;;;1740611;82;21088;-64
2022/08/27 13:36:36;;;;;;;8.70;4.28;;;;;;;;;;1715922;81;21100;-65
2022/08/27 13:39:04;;;;;;;8.38;4.53;;;;;;;;;;1733955;81;20998;-65
2022/08/27 13:41:34;;;;;;;7.75;4.40;;;;;;;;;;1738488;81;21013;-65
2022/08/27 13:44:11;;;;;;;9.38;4.50;;;;;;;;;;1743339;80;21013;-65
2022/08/27 13:46:43;;;;;;;9.28;4.33;;;;;;;;;;1734895;82;21037;-65
2022/08/27 13:49:11;;;;;;;11.15;4.50;;;;;;;;;;1751982;81;21053;-64
2022/08/27 13:51:37;;;;;;;9.85;4.90;;;;;;;;;;1726662;81;21071;-65
2022/08/27 13:57:07;;;;;;;6.58;4.60;;;;;;;;;;1791097;79;22914;-65
2022/08/27 13:59:37;;;;;;;7.53;4.92;;;;;;;;;;1771396;80;21103;-63
2022/08/27 14:02:11;;;;;;;7.62;4.80;;;;;;;;;;1763624;80;21052;-63
2022/08/27 14:04:39;;;;;;;14.73;4.75;;;;;;;;;;1753875;80;21882;-63
2022/08/27 14:07:08;;;;;;;7.97;4.62;;;;;;;;;;1755269;80;21527;-64
2022/08/27 14:09:36;;;;;;;7.53;4.58;;;;;;;;;;1735972;81;21087;-63
2022/08/27 14:12:04;;;;;;;5.95;4.25;;;;;;;;;;1696024;83;21048;-64
2022/08/27 14:14:38;;;;;;;8.33;4.55;;;;;;;;;;1718474;83;21591;-63
2022/08/27 14:17:08;;;;;;;9.08;5.05;;;;;;;;;;1716706;83;21044;-64
2022/08/27 14:19:34;;;;;;;7.47;4.47;;;;;;;;;;1718211;83;21020;-63
2022/08/27 14:22:00;;;;;;;7.17;4.03;;;;;;;;;;1717875;83;21056;-65
2022/08/27 14:24:27;;;;;;;11.35;4.70;;;;;;;;;;1718442;82;21161;-64
2022/08/27 14:26:55;;;;;;;31.48;5.87;;;;;;;;;;1717396;82;21012;-65
2022/08/27 14:29:21;;;;;;;9.28;4.83;;;;;;;;;;1689831;83;21037;-63
2022/08/27 14:31:47;;;;;;;18.50;5.70;;;;;;;;;;1716952;82;21056;-63
2022/08/27 14:34:13;;;;;;;17.85;5.60;;;;;;;;;;1718016;82;21595;-64
2022/08/27 14:36:39;;;;;;;8.68;4.90;;;;;;;;;;1716248;82;21024;-63
2022/08/27 14:39:06;;;;;;;9.73;6.20;;;;;;;;;;1721674;82;21041;-65
2022/08/27 14:41:33;;;;;;;11.60;9.58;;;;;;;;;;1715836;83;21052;-64
2022/08/27 14:43:59;;;;;;;7.60;5.47;;;;;;;;;;1715259;82;21096;-64
2022/08/27 14:46:27;;;;;;;7.33;3.92;;;;;;;;;;1717216;83;22254;-64
2022/08/27 14:48:53;;;;;;;7.42;4.12;;;;;;;;;;1719411;82;21063;-64
2022/08/27 14:51:24;;;;;;;9.55;4.30;;;;;;;;;;1715519;83;21044;-65
2022/08/27 14:53:50;;;;;;;8.93;4.45;;;;;;;;;;1716631;82;20993;-65
2022/08/27 14:56:17;;;;;;;12.47;4.53;;;;;;;;;;1714759;83;21081;-65
2022/08/27 14:58:43;;;;;;;7.40;4.50;;;;;;;;;;1749806;80;21051;-65